sensor_id;sensor_type;location;lat;lon;timestamp;P1;durP1;ratioP1;P2;durP2;ratioP2
54372;SDS011;69157;53.094;10.016;2024-02-23T00:01:52;1.42;;;0.95;;
54372;SDS011;69157;53.094;10.016;2024-02-23T00:04:18;0.65;;;0.60;;
54372;SDS011;69157;53.094;10.016;2024-02-23T00:06:44;0.80;;;0.80;;
54372;SDS011;69157;53.094;10.016;2024-02-23T00:09:10;0.80;;;0.80;;
54372;SDS011;69157;53.094;10.016;2024-02-23T00:11:39;0.40;;;0.40;;
54372;SDS011;69157;53.094;10.016;2024-02-23T00:14:07;1.75;;;0.80;;
54372;SDS011;69157;53.094;10.016;2024-02-23T00:16:39;0.70;;;0.68;;
54372;SDS011;69157;53.094;10.016;2024-02-23T00:19:09;0.70;;;0.68;;
54372;SDS011;69157;53.094;10.016;2024-02-23T00:21:36;1.25;;;0.70;;
54372;SDS011;69157;53.094;10.016;2024-02-23T00:24:03;0.50;;;0.50;;
54372;SDS011;69157;53.094;10.016;2024-02-23T00:26:30;0.50;;;0.47;;
54372;SDS011;69157;53.094;10.016;2024-02-23T00:28:57;1.20;;;0.47;;
54372;SDS011;69157;53.094;10.016;2024-02-23T00:31:23;0.43;;;0.43;;
54372;SDS011;69157;53.094;10.016;2024-02-23T00:33:49;0.57;;;0.50;;
54372;SDS011;69157;53.094;10.016;2024-02-23T00:36:16;0.50;;;0.40;;
54372;SDS011;69157;53.094;10.016;2024-02-23T00:38:42;1.05;;;0.40;;
54372;SDS011;69157;53.094;10.016;2024-02-23T00:41:09;0.52;;;0.52;;
54372;SDS011;69157;53.094;10.016;2024-02-23T00:43:39;1.42;;;0.60;;
54372;SDS011;69157;53.094;10.016;2024-02-23T00:46:06;1.08;;;0.45;;
54372;SDS011;69157;53.094;10.016;2024-02-23T00:48:32;0.50;;;0.50;;
54372;SDS011;69157;53.094;10.016;2024-02-23T00:51:00;2.17;;;0.40;;
54372;SDS011;69157;53.094;10.016;2024-02-23T00:53:27;1.85;;;0.50;;
54372;SDS011;69157;53.094;10.016;2024-02-23T00:55:53;1.85;;;0.40;;
54372;SDS011;69157;53.094;10.016;2024-02-23T00:58:20;2.03;;;0.60;;
54372;SDS011;69157;53.094;10.016;2024-02-23T01:00:46;0.47;;;0.40;;
54372;SDS011;69157;53.094;10.016;2024-02-23T01:03:12;0.55;;;0.30;;
54372;SDS011;69157;53.094;10.016;2024-02-23T01:05:40;0.95;;;0.40;;
54372;SDS011;69157;53.094;10.016;2024-02-23T01:08:07;1.17;;;0.52;;
54372;SDS011;69157;53.094;10.016;2024-02-23T01:10:33;0.47;;;0.25;;
54372;SDS011;69157;53.094;10.016;2024-02-23T01:12:59;0.63;;;0.40;;
54372;SDS011;69157;53.094;10.016;2024-02-23T01:15:26;1.30;;;0.80;;
54372;SDS011;69157;53.094;10.016;2024-02-23T01:17:54;0.57;;;0.30;;
54372;SDS011;69157;53.094;10.016;2024-02-23T01:20:21;1.58;;;0.73;;
54372;SDS011;69157;53.094;10.016;2024-02-23T01:22:47;0.30;;;0.30;;
54372;SDS011;69157;53.094;10.016;2024-02-23T01:25:14;0.80;;;0.70;;
54372;SDS011;69157;53.094;10.016;2024-02-23T01:27:40;0.50;;;0.50;;
54372;SDS011;69157;53.094;10.016;2024-02-23T01:30:07;0.30;;;0.30;;
54372;SDS011;69157;53.094;10.016;2024-02-23T01:32:33;0.30;;;0.30;;
54372;SDS011;69157;53.094;10.016;2024-02-23T01:34:59;0.20;;;0.20;;
54372;SDS011;69157;53.094;10.016;2024-02-23T01:37:25;1.23;;;0.20;;
54372;SDS011;69157;53.094;10.016;2024-02-23T01:39:51;0.85;;;0.38;;
54372;SDS011;69157;53.094;10.016;2024-02-23T01:42:17;0.25;;;0.22;;
54372;SDS011;69157;53.094;10.016;2024-02-23T01:44:44;0.20;;;0.20;;
54372;SDS011;69157;53.094;10.016;2024-02-23T01:47:12;0.28;;;0.28;;
54372;SDS011;69157;53.094;10.016;2024-02-23T01:49:38;0.20;;;0.20;;
54372;SDS011;69157;53.094;10.016;2024-02-23T01:52:05;0.30;;;0.30;;
54372;SDS011;69157;53.094;10.016;2024-02-23T01:54:32;2.15;;;0.38;;
54372;SDS011;69157;53.094;10.016;2024-02-23T01:56:59;0.73;;;0.35;;
54372;SDS011;69157;53.094;10.016;2024-02-23T01:59:25;0.30;;;0.30;;
54372;SDS011;69157;53.094;10.016;2024-02-23T02:01:51;0.30;;;0.30;;
54372;SDS011;69157;53.094;10.016;2024-02-23T02:04:19;0.30;;;0.30;;
54372;SDS011;69157;53.094;10.016;2024-02-23T02:06:45;0.22;;;0.22;;
54372;SDS011;69157;53.094;10.016;2024-02-23T02:09:11;0.30;;;0.30;;
54372;SDS011;69157;53.094;10.016;2024-02-23T02:11:48;0.40;;;0.40;;
54372;SDS011;69157;53.094;10.016;2024-02-23T02:14:15;0.30;;;0.30;;
54372;SDS011;69157;53.094;10.016;2024-02-23T02:16:41;0.40;;;0.40;;
54372;SDS011;69157;53.094;10.016;2024-02-23T02:19:09;0.40;;;0.40;;
54372;SDS011;69157;53.094;10.016;2024-02-23T02:21:35;0.40;;;0.40;;
54372;SDS011;69157;53.094;10.016;2024-02-23T02:24:01;0.50;;;0.50;;
54372;SDS011;69157;53.094;10.016;2024-02-23T02:26:28;0.40;;;0.40;;
54372;SDS011;69157;53.094;10.016;2024-02-23T02:28:54;0.30;;;0.30;;
54372;SDS011;69157;53.094;10.016;2024-02-23T02:31:20;0.30;;;0.30;;
54372;SDS011;69157;53.094;10.016;2024-02-23T02:33:45;0.30;;;0.30;;
54372;SDS011;69157;53.094;10.016;2024-02-23T02:36:11;0.20;;;0.20;;
54372;SDS011;69157;53.094;10.016;2024-02-23T02:38:38;0.30;;;0.30;;
54372;SDS011;69157;53.094;10.016;2024-02-23T02:41:05;0.20;;;0.20;;
54372;SDS011;69157;53.094;10.016;2024-02-23T02:43:31;0.30;;;0.30;;
54372;SDS011;69157;53.094;10.016;2024-02-23T02:45:57;0.40;;;0.40;;
54372;SDS011;69157;53.094;10.016;2024-02-23T02:48:24;0.30;;;0.30;;
54372;SDS011;69157;53.094;10.016;2024-02-23T02:50:50;0.88;;;0.50;;
54372;SDS011;69157;53.094;10.016;2024-02-23T02:53:17;0.30;;;0.30;;
54372;SDS011;69157;53.094;10.016;2024-02-23T02:55:43;0.30;;;0.30;;
54372;SDS011;69157;53.094;10.016;2024-02-23T02:58:10;0.30;;;0.30;;
54372;SDS011;69157;53.094;10.016;2024-02-23T03:00:38;0.30;;;0.30;;
54372;SDS011;69157;53.094;10.016;2024-02-23T03:03:05;0.30;;;0.30;;
54372;SDS011;69157;53.094;10.016;2024-02-23T03:05:32;0.30;;;0.30;;
54372;SDS011;69157;53.094;10.016;2024-02-23T03:07:58;0.20;;;0.20;;
54372;SDS011;69157;53.094;10.016;2024-02-23T03:10:25;0.32;;;0.32;;
54372;SDS011;69157;53.094;10.016;2024-02-23T03:12:52;0.25;;;0.25;;
54372;SDS011;69157;53.094;10.016;2024-02-23T03:15:18;0.30;;;0.30;;
54372;SDS011;69157;53.094;10.016;2024-02-23T03:17:44;0.32;;;0.32;;
54372;SDS011;69157;53.094;10.016;2024-02-23T03:20:11;0.30;;;0.30;;
54372;SDS011;69157;53.094;10.016;2024-02-23T03:22:37;0.32;;;0.28;;
54372;SDS011;69157;53.094;10.016;2024-02-23T03:25:04;0.20;;;0.20;;
54372;SDS011;69157;53.094;10.016;2024-02-23T03:27:33;0.30;;;0.30;;
54372;SDS011;69157;53.094;10.016;2024-02-23T03:30:03;0.22;;;0.22;;
54372;SDS011;69157;53.094;10.016;2024-02-23T03:32:30;0.30;;;0.30;;
54372;SDS011;69157;53.094;10.016;2024-02-23T03:35:05;0.55;;;0.40;;
54372;SDS011;69157;53.094;10.016;2024-02-23T03:37:32;0.30;;;0.30;;
54372;SDS011;69157;53.094;10.016;2024-02-23T03:39:58;0.30;;;0.30;;
54372;SDS011;69157;53.094;10.016;2024-02-23T03:42:25;0.50;;;0.50;;
54372;SDS011;69157;53.094;10.016;2024-02-23T03:44:51;1.08;;;0.60;;
54372;SDS011;69157;53.094;10.016;2024-02-23T03:47:19;0.30;;;0.30;;
54372;SDS011;69157;53.094;10.016;2024-02-23T03:49:45;0.30;;;0.30;;
54372;SDS011;69157;53.094;10.016;2024-02-23T03:52:11;0.35;;;0.35;;
54372;SDS011;69157;53.094;10.016;2024-02-23T03:54:37;0.47;;;0.47;;
54372;SDS011;69157;53.094;10.016;2024-02-23T03:57:03;0.50;;;0.50;;
54372;SDS011;69157;53.094;10.016;2024-02-23T03:59:29;0.30;;;0.30;;
54372;SDS011;69157;53.094;10.016;2024-02-23T04:01:56;0.40;;;0.40;;
54372;SDS011;69157;53.094;10.016;2024-02-23T04:04:22;0.50;;;0.50;;
54372;SDS011;69157;53.094;10.016;2024-02-23T04:06:48;0.40;;;0.40;;
54372;SDS011;69157;53.094;10.016;2024-02-23T04:09:14;0.40;;;0.40;;
54372;SDS011;69157;53.094;10.016;2024-02-23T04:11:40;0.47;;;0.40;;
54372;SDS011;69157;53.094;10.016;2024-02-23T04:14:06;0.57;;;0.50;;
54372;SDS011;69157;53.094;10.016;2024-02-23T04:16:32;0.43;;;0.43;;
54372;SDS011;69157;53.094;10.016;2024-02-23T04:19:00;0.50;;;0.50;;
54372;SDS011;69157;53.094;10.016;2024-02-23T04:21:26;0.55;;;0.40;;
54372;SDS011;69157;53.094;10.016;2024-02-23T04:23:52;1.98;;;0.47;;
54372;SDS011;69157;53.094;10.016;2024-02-23T04:26:18;0.40;;;0.40;;
54372;SDS011;69157;53.094;10.016;2024-02-23T04:28:44;0.55;;;0.40;;
54372;SDS011;69157;53.094;10.016;2024-02-23T04:31:11;1.33;;;0.60;;
54372;SDS011;69157;53.094;10.016;2024-02-23T04:33:37;0.75;;;0.60;;
54372;SDS011;69157;53.094;10.016;2024-02-23T04:36:03;0.68;;;0.68;;
54372;SDS011;69157;53.094;10.016;2024-02-23T04:38:30;0.95;;;0.57;;
54372;SDS011;69157;53.094;10.016;2024-02-23T04:40:57;1.58;;;1.17;;
54372;SDS011;69157;53.094;10.016;2024-02-23T04:43:24;2.58;;;0.50;;
54372;SDS011;69157;53.094;10.016;2024-02-23T04:45:50;0.90;;;0.60;;
54372;SDS011;69157;53.094;10.016;2024-02-23T04:48:16;2.05;;;0.90;;
54372;SDS011;69157;53.094;10.016;2024-02-23T04:50:42;2.83;;;1.00;;
54372;SDS011;69157;53.094;10.016;2024-02-23T04:53:08;0.60;;;0.60;;
54372;SDS011;69157;53.094;10.016;2024-02-23T04:55:35;4.00;;;0.80;;
54372;SDS011;69157;53.094;10.016;2024-02-23T04:58:01;0.60;;;0.60;;
54372;SDS011;69157;53.094;10.016;2024-02-23T05:00:28;0.82;;;0.75;;
54372;SDS011;69157;53.094;10.016;2024-02-23T05:02:58;0.73;;;0.65;;
54372;SDS011;69157;53.094;10.016;2024-02-23T05:05:24;2.72;;;0.90;;
54372;SDS011;69157;53.094;10.016;2024-02-23T05:07:50;1.20;;;1.02;;
54372;SDS011;69157;53.094;10.016;2024-02-23T05:10:18;1.23;;;0.85;;
54372;SDS011;69157;53.094;10.016;2024-02-23T05:12:44;3.42;;;1.00;;
54372;SDS011;69157;53.094;10.016;2024-02-23T05:15:13;0.57;;;0.57;;
54372;SDS011;69157;53.094;10.016;2024-02-23T05:17:39;2.25;;;0.80;;
54372;SDS011;69157;53.094;10.016;2024-02-23T05:20:05;1.10;;;0.85;;
54372;SDS011;69157;53.094;10.016;2024-02-23T05:22:34;0.63;;;0.63;;
54372;SDS011;69157;53.094;10.016;2024-02-23T05:25:01;0.40;;;0.40;;
54372;SDS011;69157;53.094;10.016;2024-02-23T05:27:29;0.90;;;0.68;;
54372;SDS011;69157;53.094;10.016;2024-02-23T05:29:55;3.80;;;0.52;;
54372;SDS011;69157;53.094;10.016;2024-02-23T05:32:21;1.08;;;0.85;;
54372;SDS011;69157;53.094;10.016;2024-02-23T05:34:48;1.38;;;1.00;;
54372;SDS011;69157;53.094;10.016;2024-02-23T05:37:17;1.15;;;1.00;;
54372;SDS011;69157;53.094;10.016;2024-02-23T05:39:43;1.00;;;0.90;;
54372;SDS011;69157;53.094;10.016;2024-02-23T05:42:10;3.80;;;0.90;;
54372;SDS011;69157;53.094;10.016;2024-02-23T05:44:36;3.30;;;0.85;;
54372;SDS011;69157;53.094;10.016;2024-02-23T05:47:04;3.83;;;0.90;;
54372;SDS011;69157;53.094;10.016;2024-02-23T05:49:31;1.10;;;0.90;;
54372;SDS011;69157;53.094;10.016;2024-02-23T05:52:00;4.55;;;1.00;;
54372;SDS011;69157;53.094;10.016;2024-02-23T05:54:27;1.20;;;0.90;;
54372;SDS011;69157;53.094;10.016;2024-02-23T05:56:54;1.45;;;1.13;;
54372;SDS011;69157;53.094;10.016;2024-02-23T05:59:21;4.65;;;0.95;;
54372;SDS011;69157;53.094;10.016;2024-02-23T06:01:47;1.30;;;1.08;;
54372;SDS011;69157;53.094;10.016;2024-02-23T06:04:13;1.85;;;0.82;;
54372;SDS011;69157;53.094;10.016;2024-02-23T06:06:42;0.70;;;0.70;;
54372;SDS011;69157;53.094;10.016;2024-02-23T06:09:08;4.22;;;0.80;;
54372;SDS011;69157;53.094;10.016;2024-02-23T06:11:34;7.45;;;1.10;;
54372;SDS011;69157;53.094;10.016;2024-02-23T06:14:01;0.80;;;0.77;;
54372;SDS011;69157;53.094;10.016;2024-02-23T06:16:27;0.85;;;0.82;;
54372;SDS011;69157;53.094;10.016;2024-02-23T06:18:55;1.27;;;0.90;;
54372;SDS011;69157;53.094;10.016;2024-02-23T06:21:23;0.63;;;0.63;;
54372;SDS011;69157;53.094;10.016;2024-02-23T06:23:49;1.70;;;1.15;;
54372;SDS011;69157;53.094;10.016;2024-02-23T06:26:15;2.58;;;0.82;;
54372;SDS011;69157;53.094;10.016;2024-02-23T06:28:41;0.63;;;0.63;;
54372;SDS011;69157;53.094;10.016;2024-02-23T06:31:08;1.20;;;1.10;;
54372;SDS011;69157;53.094;10.016;2024-02-23T06:33:35;0.95;;;0.75;;
54372;SDS011;69157;53.094;10.016;2024-02-23T06:36:01;9.23;;;1.10;;
54372;SDS011;69157;53.094;10.016;2024-02-23T06:38:29;0.52;;;0.52;;
54372;SDS011;69157;53.094;10.016;2024-02-23T06:40:55;0.45;;;0.45;;
54372;SDS011;69157;53.094;10.016;2024-02-23T06:43:21;0.95;;;0.80;;
54372;SDS011;69157;53.094;10.016;2024-02-23T06:45:48;1.10;;;0.65;;
54372;SDS011;69157;53.094;10.016;2024-02-23T06:48:16;3.10;;;1.40;;
54372;SDS011;69157;53.094;10.016;2024-02-23T06:50:42;0.60;;;0.60;;
54372;SDS011;69157;53.094;10.016;2024-02-23T06:53:08;0.50;;;0.50;;
54372;SDS011;69157;53.094;10.016;2024-02-23T06:55:34;0.70;;;0.60;;
54372;SDS011;69157;53.094;10.016;2024-02-23T06:58:00;0.85;;;0.85;;
54372;SDS011;69157;53.094;10.016;2024-02-23T07:00:29;0.70;;;0.70;;
54372;SDS011;69157;53.094;10.016;2024-02-23T07:02:55;1.35;;;1.25;;
54372;SDS011;69157;53.094;10.016;2024-02-23T07:05:24;0.95;;;0.90;;
54372;SDS011;69157;53.094;10.016;2024-02-23T07:07:51;0.93;;;0.73;;
54372;SDS011;69157;53.094;10.016;2024-02-23T07:10:18;0.75;;;0.63;;
54372;SDS011;69157;53.094;10.016;2024-02-23T07:12:45;2.80;;;0.93;;
54372;SDS011;69157;53.094;10.016;2024-02-23T07:15:11;1.83;;;0.70;;
54372;SDS011;69157;53.094;10.016;2024-02-23T07:17:38;1.25;;;0.77;;
54372;SDS011;69157;53.094;10.016;2024-02-23T07:20:04;0.65;;;0.65;;
54372;SDS011;69157;53.094;10.016;2024-02-23T07:22:31;2.78;;;0.70;;
54372;SDS011;69157;53.094;10.016;2024-02-23T07:24:57;1.00;;;0.90;;
54372;SDS011;69157;53.094;10.016;2024-02-23T07:27:23;0.82;;;0.60;;
54372;SDS011;69157;53.094;10.016;2024-02-23T07:29:49;1.80;;;0.80;;
54372;SDS011;69157;53.094;10.016;2024-02-23T07:32:15;0.55;;;0.55;;
54372;SDS011;69157;53.094;10.016;2024-02-23T07:34:42;0.50;;;0.50;;
54372;SDS011;69157;53.094;10.016;2024-02-23T07:37:08;1.17;;;0.70;;
54372;SDS011;69157;53.094;10.016;2024-02-23T07:39:34;3.60;;;0.90;;
54372;SDS011;69157;53.094;10.016;2024-02-23T07:42:00;1.75;;;1.08;;
54372;SDS011;69157;53.094;10.016;2024-02-23T07:44:28;0.77;;;0.77;;
54372;SDS011;69157;53.094;10.016;2024-02-23T07:46:55;1.92;;;0.60;;
54372;SDS011;69157;53.094;10.016;2024-02-23T07:49:21;3.33;;;0.70;;
54372;SDS011;69157;53.094;10.016;2024-02-23T07:51:50;1.33;;;1.10;;
54372;SDS011;69157;53.094;10.016;2024-02-23T07:54:17;0.60;;;0.50;;
54372;SDS011;69157;53.094;10.016;2024-02-23T07:56:45;2.40;;;0.98;;
54372;SDS011;69157;53.094;10.016;2024-02-23T07:59:12;0.70;;;0.60;;
54372;SDS011;69157;53.094;10.016;2024-02-23T08:01:38;0.60;;;0.60;;
54372;SDS011;69157;53.094;10.016;2024-02-23T08:04:05;0.55;;;0.55;;
54372;SDS011;69157;53.094;10.016;2024-02-23T08:06:31;2.60;;;0.68;;
54372;SDS011;69157;53.094;10.016;2024-02-23T08:09:00;1.15;;;1.00;;
54372;SDS011;69157;53.094;10.016;2024-02-23T08:11:27;3.03;;;0.90;;
54372;SDS011;69157;53.094;10.016;2024-02-23T08:13:53;0.68;;;0.60;;
54372;SDS011;69157;53.094;10.016;2024-02-23T08:16:19;1.42;;;0.50;;
54372;SDS011;69157;53.094;10.016;2024-02-23T08:18:45;5.07;;;0.98;;
54372;SDS011;69157;53.094;10.016;2024-02-23T08:21:12;1.27;;;1.00;;
54372;SDS011;69157;53.094;10.016;2024-02-23T08:23:38;0.57;;;0.57;;
54372;SDS011;69157;53.094;10.016;2024-02-23T08:26:05;0.88;;;0.60;;
54372;SDS011;69157;53.094;10.016;2024-02-23T08:28:31;1.17;;;0.70;;
54372;SDS011;69157;53.094;10.016;2024-02-23T08:30:59;0.70;;;0.60;;
54372;SDS011;69157;53.094;10.016;2024-02-23T08:33:26;1.05;;;0.63;;
54372;SDS011;69157;53.094;10.016;2024-02-23T08:35:52;0.75;;;0.75;;
54372;SDS011;69157;53.094;10.016;2024-02-23T08:38:18;1.77;;;0.68;;
54372;SDS011;69157;53.094;10.016;2024-02-23T08:40:44;2.83;;;0.70;;
54372;SDS011;69157;53.094;10.016;2024-02-23T08:43:11;1.48;;;0.70;;
54372;SDS011;69157;53.094;10.016;2024-02-23T08:45:37;5.63;;;0.98;;
54372;SDS011;69157;53.094;10.016;2024-02-23T08:48:03;2.70;;;0.70;;
54372;SDS011;69157;53.094;10.016;2024-02-23T08:50:31;2.10;;;0.60;;
54372;SDS011;69157;53.094;10.016;2024-02-23T08:52:59;0.52;;;0.52;;
54372;SDS011;69157;53.094;10.016;2024-02-23T08:55:25;2.78;;;0.60;;
54372;SDS011;69157;53.094;10.016;2024-02-23T08:57:51;0.70;;;0.57;;
54372;SDS011;69157;53.094;10.016;2024-02-23T09:00:17;1.13;;;0.93;;
54372;SDS011;69157;53.094;10.016;2024-02-23T09:02:43;3.03;;;0.73;;
54372;SDS011;69157;53.094;10.016;2024-02-23T09:05:10;0.85;;;0.60;;
54372;SDS011;69157;53.094;10.016;2024-02-23T09:07:37;0.52;;;0.52;;
54372;SDS011;69157;53.094;10.016;2024-02-23T09:10:03;0.57;;;0.40;;
54372;SDS011;69157;53.094;10.016;2024-02-23T09:12:30;1.65;;;0.73;;
54372;SDS011;69157;53.094;10.016;2024-02-23T09:14:56;5.85;;;0.63;;
54372;SDS011;69157;53.094;10.016;2024-02-23T09:17:21;1.50;;;0.73;;
54372;SDS011;69157;53.094;10.016;2024-02-23T09:19:48;0.70;;;0.70;;
54372;SDS011;69157;53.094;10.016;2024-02-23T09:22:15;2.92;;;0.50;;
54372;SDS011;69157;53.094;10.016;2024-02-23T09:24:41;2.25;;;0.88;;
54372;SDS011;69157;53.094;10.016;2024-02-23T09:27:07;2.53;;;0.45;;
54372;SDS011;69157;53.094;10.016;2024-02-23T09:29:33;3.80;;;0.70;;
54372;SDS011;69157;53.094;10.016;2024-02-23T09:31:59;0.63;;;0.40;;
54372;SDS011;69157;53.094;10.016;2024-02-23T09:34:26;1.08;;;0.50;;
54372;SDS011;69157;53.094;10.016;2024-02-23T09:36:52;3.42;;;0.70;;
54372;SDS011;69157;53.094;10.016;2024-02-23T09:39:18;1.85;;;0.77;;
54372;SDS011;69157;53.094;10.016;2024-02-23T09:41:45;0.77;;;0.68;;
54372;SDS011;69157;53.094;10.016;2024-02-23T09:44:11;0.70;;;0.65;;
54372;SDS011;69157;53.094;10.016;2024-02-23T09:46:38;0.55;;;0.50;;
54372;SDS011;69157;53.094;10.016;2024-02-23T09:49:07;1.30;;;0.88;;
54372;SDS011;69157;53.094;10.016;2024-02-23T09:51:35;3.80;;;0.88;;
54372;SDS011;69157;53.094;10.016;2024-02-23T09:54:02;1.33;;;0.60;;
54372;SDS011;69157;53.094;10.016;2024-02-23T09:56:28;0.95;;;0.52;;
54372;SDS011;69157;53.094;10.016;2024-02-23T09:59:01;0.40;;;0.40;;
54372;SDS011;69157;53.094;10.016;2024-02-23T10:01:29;3.70;;;0.68;;
54372;SDS011;69157;53.094;10.016;2024-02-23T10:03:56;2.90;;;0.50;;
54372;SDS011;69157;53.094;10.016;2024-02-23T10:06:24;1.42;;;0.77;;
54372;SDS011;69157;53.094;10.016;2024-02-23T10:08:52;1.00;;;0.43;;
54372;SDS011;69157;53.094;10.016;2024-02-23T10:11:21;0.38;;;0.38;;
54372;SDS011;69157;53.094;10.016;2024-02-23T10:13:48;2.75;;;0.50;;
54372;SDS011;69157;53.094;10.016;2024-02-23T10:16:17;2.38;;;0.68;;
54372;SDS011;69157;53.094;10.016;2024-02-23T10:18:45;3.58;;;1.02;;
54372;SDS011;69157;53.094;10.016;2024-02-23T10:21:13;1.23;;;0.40;;
54372;SDS011;69157;53.094;10.016;2024-02-23T10:23:40;3.15;;;0.77;;
54372;SDS011;69157;53.094;10.016;2024-02-23T10:26:06;1.80;;;0.50;;
54372;SDS011;69157;53.094;10.016;2024-02-23T10:28:34;0.55;;;0.50;;
54372;SDS011;69157;53.094;10.016;2024-02-23T10:31:00;0.55;;;0.50;;
54372;SDS011;69157;53.094;10.016;2024-02-23T10:33:27;1.90;;;0.60;;
54372;SDS011;69157;53.094;10.016;2024-02-23T10:35:55;2.47;;;0.47;;
54372;SDS011;69157;53.094;10.016;2024-02-23T10:38:25;0.30;;;0.30;;
54372;SDS011;69157;53.094;10.016;2024-02-23T10:40:52;0.65;;;0.57;;
54372;SDS011;69157;53.094;10.016;2024-02-23T10:43:23;2.00;;;0.50;;
54372;SDS011;69157;53.094;10.016;2024-02-23T10:45:52;1.52;;;0.70;;
54372;SDS011;69157;53.094;10.016;2024-02-23T10:48:20;0.35;;;0.35;;
54372;SDS011;69157;53.094;10.016;2024-02-23T10:50:46;1.15;;;0.45;;
54372;SDS011;69157;53.094;10.016;2024-02-23T10:53:13;0.40;;;0.40;;
54372;SDS011;69157;53.094;10.016;2024-02-23T10:55:39;0.35;;;0.30;;
54372;SDS011;69157;53.094;10.016;2024-02-23T10:58:08;2.20;;;0.45;;
54372;SDS011;69157;53.094;10.016;2024-02-23T11:00:37;4.68;;;0.63;;
54372;SDS011;69157;53.094;10.016;2024-02-23T11:03:03;0.55;;;0.40;;
54372;SDS011;69157;53.094;10.016;2024-02-23T11:05:29;3.15;;;0.57;;
54372;SDS011;69157;53.094;10.016;2024-02-23T11:07:58;1.75;;;0.45;;
54372;SDS011;69157;53.094;10.016;2024-02-23T11:10:26;3.40;;;0.32;;
54372;SDS011;69157;53.094;10.016;2024-02-23T11:12:57;1.00;;;0.50;;
54372;SDS011;69157;53.094;10.016;2024-02-23T11:15:25;3.75;;;0.47;;
54372;SDS011;69157;53.094;10.016;2024-02-23T11:17:52;0.93;;;0.50;;
54372;SDS011;69157;53.094;10.016;2024-02-23T11:20:18;0.38;;;0.35;;
54372;SDS011;69157;53.094;10.016;2024-02-23T11:22:45;1.48;;;0.30;;
54372;SDS011;69157;53.094;10.016;2024-02-23T11:25:18;0.20;;;0.20;;
54372;SDS011;69157;53.094;10.016;2024-02-23T11:27:49;1.07;;;0.47;;
54372;SDS011;69157;53.094;10.016;2024-02-23T11:30:17;0.47;;;0.43;;
54372;SDS011;69157;53.094;10.016;2024-02-23T11:32:44;0.38;;;0.30;;
54372;SDS011;69157;53.094;10.016;2024-02-23T11:35:12;0.30;;;0.30;;
54372;SDS011;69157;53.094;10.016;2024-02-23T11:37:54;1.00;;;0.30;;
54372;SDS011;69157;53.094;10.016;2024-02-23T11:40:29;0.68;;;0.43;;
54372;SDS011;69157;53.094;10.016;2024-02-23T11:42:56;0.52;;;0.50;;
54372;SDS011;69157;53.094;10.016;2024-02-23T11:45:25;0.52;;;0.40;;
54372;SDS011;69157;53.094;10.016;2024-02-23T11:47:54;0.65;;;0.40;;
54372;SDS011;69157;53.094;10.016;2024-02-23T11:50:20;0.38;;;0.32;;
54372;SDS011;69157;53.094;10.016;2024-02-23T11:52:46;1.55;;;0.35;;
54372;SDS011;69157;53.094;10.016;2024-02-23T11:55:22;0.75;;;0.65;;
54372;SDS011;69157;53.094;10.016;2024-02-23T11:57:49;0.40;;;0.40;;
54372;SDS011;69157;53.094;10.016;2024-02-23T12:00:15;1.10;;;0.30;;
54372;SDS011;69157;53.094;10.016;2024-02-23T12:02:43;1.35;;;0.65;;
54372;SDS011;69157;53.094;10.016;2024-02-23T12:05:14;0.22;;;0.22;;
54372;SDS011;69157;53.094;10.016;2024-02-23T12:07:40;0.50;;;0.30;;
54372;SDS011;69157;53.094;10.016;2024-02-23T12:10:07;0.98;;;0.50;;
54372;SDS011;69157;53.094;10.016;2024-02-23T12:12:36;0.20;;;0.20;;
54372;SDS011;69157;53.094;10.016;2024-02-23T12:15:02;0.73;;;0.50;;
54372;SDS011;69157;53.094;10.016;2024-02-23T12:17:28;0.40;;;0.30;;
54372;SDS011;69157;53.094;10.016;2024-02-23T12:20:01;0.85;;;0.50;;
54372;SDS011;69157;53.094;10.016;2024-02-23T12:22:27;2.92;;;0.50;;
54372;SDS011;69157;53.094;10.016;2024-02-23T12:24:56;0.30;;;0.30;;
54372;SDS011;69157;53.094;10.016;2024-02-23T12:27:22;0.30;;;0.30;;
54372;SDS011;69157;53.094;10.016;2024-02-23T12:29:53;1.40;;;0.35;;
54372;SDS011;69157;53.094;10.016;2024-02-23T12:32:20;0.50;;;0.30;;
54372;SDS011;69157;53.094;10.016;2024-02-23T12:34:48;2.53;;;0.55;;
54372;SDS011;69157;53.094;10.016;2024-02-23T12:37:15;0.60;;;0.20;;
54372;SDS011;69157;53.094;10.016;2024-02-23T12:39:41;0.30;;;0.30;;
54372;SDS011;69157;53.094;10.016;2024-02-23T12:42:07;0.35;;;0.35;;
54372;SDS011;69157;53.094;10.016;2024-02-23T12:44:33;0.20;;;0.20;;
54372;SDS011;69157;53.094;10.016;2024-02-23T12:47:00;0.20;;;0.20;;
54372;SDS011;69157;53.094;10.016;2024-02-23T12:49:26;0.38;;;0.30;;
54372;SDS011;69157;53.094;10.016;2024-02-23T12:51:52;0.95;;;0.47;;
54372;SDS011;69157;53.094;10.016;2024-02-23T12:54:18;2.35;;;0.30;;
54372;SDS011;69157;53.094;10.016;2024-02-23T12:56:45;0.57;;;0.30;;
54372;SDS011;69157;53.094;10.016;2024-02-23T12:59:11;0.90;;;0.35;;
54372;SDS011;69157;53.094;10.016;2024-02-23T13:01:37;0.40;;;0.30;;
54372;SDS011;69157;53.094;10.016;2024-02-23T13:04:04;0.30;;;0.30;;
54372;SDS011;69157;53.094;10.016;2024-02-23T13:06:38;0.30;;;0.30;;
54372;SDS011;69157;53.094;10.016;2024-02-23T13:09:06;0.20;;;0.20;;
54372;SDS011;69157;53.094;10.016;2024-02-23T13:11:37;0.22;;;0.22;;
54372;SDS011;69157;53.094;10.016;2024-02-23T13:14:04;1.15;;;0.28;;
54372;SDS011;69157;53.094;10.016;2024-02-23T13:16:30;0.80;;;0.20;;
54372;SDS011;69157;53.094;10.016;2024-02-23T13:18:57;0.30;;;0.30;;
54372;SDS011;69157;53.094;10.016;2024-02-23T13:21:23;0.32;;;0.32;;
54372;SDS011;69157;53.094;10.016;2024-02-23T13:23:49;2.58;;;0.20;;
54372;SDS011;69157;53.094;10.016;2024-02-23T13:26:15;0.30;;;0.30;;
54372;SDS011;69157;53.094;10.016;2024-02-23T13:28:42;0.40;;;0.40;;
54372;SDS011;69157;53.094;10.016;2024-02-23T13:31:09;0.30;;;0.30;;
54372;SDS011;69157;53.094;10.016;2024-02-23T13:33:36;0.35;;;0.30;;
54372;SDS011;69157;53.094;10.016;2024-02-23T13:36:02;0.32;;;0.25;;
54372;SDS011;69157;53.094;10.016;2024-02-23T13:38:28;2.25;;;0.80;;
54372;SDS011;69157;53.094;10.016;2024-02-23T13:40:55;0.73;;;0.30;;
54372;SDS011;69157;53.094;10.016;2024-02-23T13:43:21;0.32;;;0.30;;
54372;SDS011;69157;53.094;10.016;2024-02-23T13:45:52;0.40;;;0.30;;
54372;SDS011;69157;53.094;10.016;2024-02-23T13:48:19;0.40;;;0.30;;
54372;SDS011;69157;53.094;10.016;2024-02-23T13:50:48;0.20;;;0.20;;
54372;SDS011;69157;53.094;10.016;2024-02-23T13:53:14;1.80;;;0.40;;
54372;SDS011;69157;53.094;10.016;2024-02-23T13:55:41;2.75;;;0.30;;
54372;SDS011;69157;53.094;10.016;2024-02-23T13:58:09;0.40;;;0.40;;
54372;SDS011;69157;53.094;10.016;2024-02-23T14:00:35;0.35;;;0.32;;
54372;SDS011;69157;53.094;10.016;2024-02-23T14:03:01;0.30;;;0.30;;
54372;SDS011;69157;53.094;10.016;2024-02-23T14:05:28;1.70;;;0.45;;
54372;SDS011;69157;53.094;10.016;2024-02-23T14:07:54;2.83;;;0.50;;
54372;SDS011;69157;53.094;10.016;2024-02-23T14:10:20;0.30;;;0.30;;
54372;SDS011;69157;53.094;10.016;2024-02-23T14:12:47;0.85;;;0.40;;
54372;SDS011;69157;53.094;10.016;2024-02-23T14:15:15;2.28;;;0.40;;
54372;SDS011;69157;53.094;10.016;2024-02-23T14:17:42;0.30;;;0.30;;
54372;SDS011;69157;53.094;10.016;2024-02-23T14:20:08;0.28;;;0.20;;
54372;SDS011;69157;53.094;10.016;2024-02-23T14:22:35;0.30;;;0.25;;
54372;SDS011;69157;53.094;10.016;2024-02-23T14:25:03;0.65;;;0.38;;
54372;SDS011;69157;53.094;10.016;2024-02-23T14:27:29;0.43;;;0.30;;
54372;SDS011;69157;53.094;10.016;2024-02-23T14:29:55;0.30;;;0.30;;
54372;SDS011;69157;53.094;10.016;2024-02-23T14:32:22;1.75;;;0.30;;